createdAt,value
2019-03-30T00:00:43.949Z,0.60
2019-03-30T00:03:12.094Z,0.78
2019-03-30T00:05:40.168Z,0.53
2019-03-30T00:08:08.363Z,0.40
2019-03-30T00:10:37.573Z,0.65
2019-03-30T00:13:05.779Z,0.50
2019-03-30T00:15:33.933Z,0.60
2019-03-30T00:18:02.062Z,0.55
2019-03-30T00:20:30.283Z,0.60
2019-03-30T00:22:58.368Z,0.70
2019-03-30T00:25:26.996Z,0.85
2019-03-30T00:27:55.492Z,0.80
2019-03-30T00:30:23.571Z,0.62
2019-03-30T00:32:51.715Z,0.80
2019-03-30T00:35:19.802Z,0.68
2019-03-30T00:37:47.922Z,0.60
2019-03-30T00:40:16.000Z,0.70
2019-03-30T00:42:44.138Z,1.00
2019-03-30T00:45:12.365Z,0.50
2019-03-30T00:47:40.523Z,0.60
2019-03-30T00:50:08.723Z,0.62
2019-03-30T00:52:36.801Z,0.70
2019-03-30T00:55:06.403Z,0.70
2019-03-30T00:57:34.478Z,0.70
2019-03-30T01:00:02.546Z,0.75
2019-03-30T01:02:31.866Z,0.70
2019-03-30T01:05:00.381Z,0.70
2019-03-30T01:07:28.453Z,0.50
2019-03-30T01:09:56.548Z,0.53
2019-03-30T01:12:24.723Z,0.85
2019-03-30T01:14:53.919Z,0.90
2019-03-30T01:17:21.993Z,1.00
2019-03-30T01:20:02.162Z,0.62
2019-03-30T01:22:20.010Z,0.80
2019-03-30T01:24:48.062Z,0.80
2019-03-30T01:27:16.150Z,0.70
2019-03-30T01:29:44.250Z,0.60
2019-03-30T01:32:12.402Z,0.60
2019-03-30T01:34:40.493Z,0.70
2019-03-30T01:37:08.561Z,0.85
2019-03-30T01:39:36.712Z,0.47
2019-03-30T01:42:04.791Z,0.70
2019-03-30T01:44:32.883Z,0.70
2019-03-30T01:47:00.957Z,0.93
2019-03-30T01:49:29.045Z,0.82
2019-03-30T01:51:57.116Z,0.90
2019-03-30T01:54:26.230Z,0.75
2019-03-30T01:56:54.356Z,0.47
2019-03-30T01:59:22.460Z,0.72
2019-03-30T02:01:50.593Z,0.70
2019-03-30T02:04:18.670Z,0.50
2019-03-30T02:06:46.810Z,0.70
2019-03-30T02:09:16.409Z,0.55
2019-03-30T02:11:45.524Z,0.70
2019-03-30T02:14:13.772Z,0.60
2019-03-30T02:16:41.873Z,0.60
2019-03-30T02:19:10.392Z,0.70
2019-03-30T02:21:39.405Z,0.53
2019-03-30T02:24:07.485Z,0.70
2019-03-30T02:26:35.625Z,0.82
2019-03-30T02:29:04.929Z,0.93
2019-03-30T02:31:33.176Z,0.80
2019-03-30T02:34:01.299Z,0.78
2019-03-30T02:36:29.452Z,0.68
2019-03-30T02:38:57.546Z,0.75
2019-03-30T02:41:25.684Z,0.80
2019-03-30T02:43:53.787Z,0.85
2019-03-30T02:46:21.876Z,0.88
2019-03-30T02:48:50.033Z,0.93
2019-03-30T02:51:18.258Z,0.80
2019-03-30T02:53:47.460Z,0.85
2019-03-30T02:56:15.525Z,0.70
2019-03-30T02:58:44.004Z,0.80
2019-03-30T03:01:12.144Z,0.72
2019-03-30T03:03:40.250Z,1.00
2019-03-30T03:06:08.688Z,0.80
2019-03-30T03:08:36.891Z,0.70
2019-03-30T03:11:05.072Z,0.90
2019-03-30T03:13:33.157Z,0.62
2019-03-30T03:16:02.205Z,0.95
2019-03-30T03:18:30.336Z,0.98
2019-03-30T03:21:07.214Z,0.80
2019-03-30T03:23:28.334Z,0.67
2019-03-30T03:25:56.577Z,0.50
2019-03-30T03:28:24.882Z,0.90
2019-03-30T03:30:53.912Z,0.68
2019-03-30T03:33:22.064Z,0.70
2019-03-30T03:35:50.165Z,0.90
2019-03-30T03:38:18.333Z,1.10
2019-03-30T03:40:46.461Z,0.82
2019-03-30T03:43:14.526Z,0.90
2019-03-30T03:45:44.590Z,0.75
2019-03-30T03:48:12.851Z,0.88
2019-03-30T03:50:42.160Z,0.60
2019-03-30T03:53:11.793Z,0.62
2019-03-30T03:55:40.040Z,0.80
2019-03-30T03:58:08.191Z,0.85
2019-03-30T04:00:36.508Z,0.70
2019-03-30T04:03:04.659Z,0.90
2019-03-30T04:05:34.073Z,0.57
2019-03-30T04:08:03.941Z,0.68
2019-03-30T04:10:33.163Z,0.65
2019-03-30T04:13:01.619Z,0.80
2019-03-30T04:15:29.691Z,0.75
2019-03-30T04:17:57.773Z,0.80
2019-03-30T04:20:26.011Z,0.75
2019-03-30T04:22:54.310Z,0.70
2019-03-30T04:25:22.676Z,0.75
2019-03-30T04:27:50.884Z,0.68
2019-03-30T04:30:19.072Z,0.70
2019-03-30T04:32:47.211Z,0.88
2019-03-30T04:35:15.308Z,0.78
2019-03-30T04:37:43.461Z,0.55
2019-03-30T04:40:11.600Z,0.90
2019-03-30T04:42:39.801Z,0.90
2019-03-30T04:45:08.122Z,0.93
2019-03-30T04:47:36.246Z,0.93
2019-03-30T04:50:05.022Z,0.70
2019-03-30T04:52:33.150Z,0.60
2019-03-30T04:55:01.218Z,0.80
2019-03-30T04:57:29.347Z,0.80
2019-03-30T04:59:57.455Z,0.70
2019-03-30T05:02:25.646Z,0.85
2019-03-30T05:04:53.778Z,0.95
2019-03-30T05:07:21.923Z,0.90
2019-03-30T05:09:50.018Z,0.85
2019-03-30T05:12:18.143Z,1.10
2019-03-30T05:14:46.274Z,0.80
2019-03-30T05:17:14.367Z,0.75
2019-03-30T05:19:42.533Z,0.85
2019-03-30T05:22:12.939Z,1.02
2019-03-30T05:24:40.493Z,0.80
2019-03-30T05:27:08.570Z,0.90
2019-03-30T05:29:36.622Z,1.10
2019-03-30T05:32:04.735Z,1.10
2019-03-30T05:34:32.900Z,0.85
2019-03-30T05:37:00.984Z,1.30
2019-03-30T05:39:29.159Z,1.05
2019-03-30T05:41:57.220Z,1.35
2019-03-30T05:44:25.312Z,0.93
2019-03-30T05:46:53.463Z,0.88
2019-03-30T05:49:21.520Z,0.82
2019-03-30T05:51:49.609Z,1.05
2019-03-30T05:54:17.748Z,0.80
2019-03-30T05:56:45.857Z,1.10
2019-03-30T05:59:13.993Z,0.88
2019-03-30T06:01:42.141Z,0.90
2019-03-30T06:04:10.273Z,1.00
2019-03-30T06:06:38.413Z,1.00
2019-03-30T06:09:06.478Z,1.10
2019-03-30T06:11:34.935Z,0.95
2019-03-30T06:14:02.981Z,1.50
2019-03-30T06:16:31.104Z,1.10
2019-03-30T06:18:59.296Z,1.17
2019-03-30T06:21:27.380Z,1.30
2019-03-30T06:23:55.526Z,1.50
2019-03-30T06:26:24.657Z,0.95
2019-03-30T06:28:52.751Z,1.10
2019-03-30T06:31:20.837Z,1.07
2019-03-30T06:33:48.945Z,0.98
2019-03-30T06:36:17.054Z,0.78
2019-03-30T06:38:45.175Z,1.10
2019-03-30T06:41:13.265Z,1.10
2019-03-30T06:43:41.423Z,0.95
2019-03-30T06:46:09.484Z,1.00
2019-03-30T06:48:37.634Z,1.25
2019-03-30T06:51:05.786Z,1.20
2019-03-30T06:53:34.848Z,0.98
2019-03-30T06:56:02.946Z,1.05
2019-03-30T06:58:31.106Z,1.10
2019-03-30T07:00:59.255Z,1.00
2019-03-30T07:03:27.349Z,1.20
2019-03-30T07:05:56.091Z,1.00
2019-03-30T07:08:25.969Z,1.00
2019-03-30T07:10:54.754Z,1.00
2019-03-30T07:13:23.000Z,1.22
2019-03-30T07:15:51.087Z,1.00
2019-03-30T07:18:19.161Z,0.65
2019-03-30T07:20:47.419Z,1.00
2019-03-30T07:23:15.556Z,0.90
2019-03-30T07:25:44.712Z,1.00
2019-03-30T07:28:12.842Z,0.95
2019-03-30T07:30:41.064Z,0.80
2019-03-30T07:33:09.384Z,0.90
2019-03-30T07:35:37.541Z,1.27
2019-03-30T07:38:05.750Z,1.12
2019-03-30T07:40:34.417Z,1.27
2019-03-30T07:43:02.502Z,1.22
2019-03-30T07:45:30.665Z,1.12
2019-03-30T07:47:59.942Z,1.22
2019-03-30T07:50:28.107Z,1.00
2019-03-30T07:52:56.283Z,1.07
2019-03-30T07:55:24.352Z,0.95
2019-03-30T07:57:52.519Z,1.30
2019-03-30T08:00:20.856Z,1.00
2019-03-30T08:02:50.455Z,0.90
2019-03-30T08:05:18.552Z,0.85
2019-03-30T08:07:46.722Z,1.10
2019-03-30T08:10:14.871Z,1.17
2019-03-30T08:12:44.049Z,0.95
2019-03-30T08:15:12.331Z,1.15
2019-03-30T08:17:40.414Z,1.25
2019-03-30T08:20:08.681Z,1.27
2019-03-30T08:22:37.305Z,1.42
2019-03-30T08:25:06.608Z,1.10
2019-03-30T08:27:34.769Z,1.32
2019-03-30T08:30:04.896Z,1.40
2019-03-30T08:32:37.026Z,1.30
2019-03-30T08:35:05.830Z,1.27
2019-03-30T08:37:33.942Z,1.30
2019-03-30T08:40:02.063Z,2.37
2019-03-30T08:42:30.204Z,1.90
2019-03-30T08:44:58.312Z,1.95
2019-03-30T08:47:26.422Z,1.60
2019-03-30T08:49:54.534Z,1.25
2019-03-30T08:52:22.615Z,1.57
2019-03-30T08:54:51.036Z,1.55
2019-03-30T08:57:19.103Z,1.57
2019-03-30T08:59:47.211Z,1.10
2019-03-30T09:02:15.339Z,1.45
2019-03-30T09:04:43.514Z,1.60
2019-03-30T09:07:12.037Z,1.65
2019-03-30T09:09:40.191Z,2.10
2019-03-30T09:12:08.288Z,1.90
2019-03-30T09:14:36.397Z,1.90
2019-03-30T09:17:04.480Z,1.75
2019-03-30T09:19:32.665Z,1.65
2019-03-30T09:22:00.812Z,1.80
2019-03-30T09:24:28.984Z,1.62
2019-03-30T09:26:57.073Z,1.55
2019-03-30T09:29:25.261Z,1.50
2019-03-30T09:31:53.437Z,3.05
2019-03-30T09:34:21.658Z,2.60
2019-03-30T09:36:50.094Z,3.80
2019-03-30T09:39:18.423Z,2.87
2019-03-30T09:41:46.562Z,2.95
2019-03-30T09:44:14.715Z,3.45
2019-03-30T09:46:42.866Z,2.50
2019-03-30T09:49:11.106Z,2.42
2019-03-30T09:51:40.420Z,2.50
2019-03-30T09:54:22.827Z,2.50
2019-03-30T09:59:05.732Z,2.60
2019-03-30T10:01:33.797Z,2.70
2019-03-30T10:04:01.901Z,4.95
2019-03-30T10:06:34.338Z,3.10
2019-03-30T10:11:27.023Z,3.75
2019-03-30T10:14:03.703Z,3.33
2019-03-30T10:16:31.959Z,2.60
2019-03-30T10:19:00.031Z,5.15
2019-03-30T10:21:28.521Z,5.78
2019-03-30T10:23:56.917Z,4.33
2019-03-30T10:26:25.080Z,4.78
2019-03-30T10:28:53.290Z,4.00
2019-03-30T10:31:21.471Z,3.77
2019-03-30T10:33:49.596Z,3.02
2019-03-30T10:36:17.866Z,3.37
2019-03-30T10:38:46.042Z,2.87
2019-03-30T10:41:14.226Z,2.60
2019-03-30T10:43:42.451Z,2.70
2019-03-30T10:46:10.542Z,2.60
2019-03-30T10:48:39.017Z,2.50
2019-03-30T10:51:07.214Z,2.33
2019-03-30T10:53:35.426Z,3.55
2019-03-30T10:56:03.572Z,2.90
2019-03-30T10:58:31.693Z,2.22
2019-03-30T11:00:59.817Z,2.75
2019-03-30T11:03:27.973Z,3.20
2019-03-30T11:05:56.046Z,3.55
2019-03-30T11:08:25.833Z,2.95
2019-03-30T11:10:54.077Z,2.10
2019-03-30T11:13:22.242Z,3.17
2019-03-30T11:15:50.320Z,4.28
2019-03-30T11:18:18.398Z,3.58
2019-03-30T11:20:46.480Z,5.42
2019-03-30T11:23:14.557Z,6.58
2019-03-30T11:25:42.620Z,7.03
2019-03-30T11:28:10.775Z,4.70
2019-03-30T11:30:38.835Z,4.28
2019-03-30T11:33:06.925Z,3.92
2019-03-30T11:35:35.076Z,3.15
2019-03-30T11:38:03.166Z,2.05
2019-03-30T11:40:31.253Z,2.33
2019-03-30T11:42:59.343Z,2.40
2019-03-30T11:45:27.437Z,2.30
2019-03-30T11:47:55.521Z,1.77
2019-03-30T11:50:23.612Z,3.65
2019-03-30T11:52:51.683Z,2.80
2019-03-30T11:55:22.081Z,1.87
2019-03-30T11:57:50.804Z,3.40
2019-03-30T12:00:19.056Z,4.58
2019-03-30T12:02:47.153Z,3.92
2019-03-30T12:07:43.811Z,4.12
2019-03-30T12:10:12.107Z,4.90
2019-03-30T12:12:40.283Z,4.47
2019-03-30T12:15:08.647Z,5.30
2019-03-30T12:17:36.830Z,3.83
2019-03-30T12:20:06.523Z,5.47
2019-03-30T12:25:01.901Z,5.50
2019-03-30T12:27:29.983Z,4.42
2019-03-30T12:29:58.150Z,5.20
2019-03-30T12:32:26.259Z,6.08
2019-03-30T12:34:54.346Z,4.85
2019-03-30T12:37:23.334Z,4.50
2019-03-30T12:39:51.466Z,4.73
2019-03-30T12:42:19.586Z,4.80
2019-03-30T12:44:47.654Z,4.10
2019-03-30T12:47:16.679Z,5.37
2019-03-30T12:49:45.350Z,4.40
2019-03-30T12:52:13.704Z,6.40
2019-03-30T12:54:41.841Z,6.45
2019-03-30T12:57:09.979Z,5.50
2019-03-30T12:59:40.358Z,4.58
2019-03-30T13:02:08.462Z,4.57
2019-03-30T13:04:36.546Z,4.40
2019-03-30T13:07:04.608Z,4.50
2019-03-30T13:09:34.823Z,4.22
2019-03-30T13:12:02.488Z,3.70
2019-03-30T13:14:30.629Z,4.17
2019-03-30T13:16:59.810Z,4.30
2019-03-30T13:19:27.896Z,3.62
2019-03-30T13:21:56.071Z,4.58
2019-03-30T13:24:24.179Z,3.72
2019-03-30T13:26:52.296Z,3.50
2019-03-30T13:29:20.501Z,3.15
2019-03-30T13:31:48.682Z,3.20
2019-03-30T13:34:16.742Z,2.67
2019-03-30T13:36:44.838Z,5.17
2019-03-30T13:39:14.169Z,6.25
2019-03-30T13:41:42.230Z,4.15
2019-03-30T13:44:12.870Z,4.80
2019-03-30T13:46:40.909Z,4.83
2019-03-30T13:49:09.950Z,3.00
2019-03-30T13:51:38.013Z,4.35
2019-03-30T13:54:07.096Z,2.60
2019-03-30T13:56:35.119Z,4.00
2019-03-30T13:59:03.195Z,2.67
2019-03-30T14:01:31.261Z,3.92
2019-03-30T14:03:59.383Z,3.60
2019-03-30T14:06:27.468Z,5.40
2019-03-30T14:08:55.566Z,5.67
2019-03-30T14:11:23.726Z,6.25
2019-03-30T14:13:51.876Z,5.58
2019-03-30T14:16:19.964Z,3.87
2019-03-30T14:18:48.114Z,3.70
2019-03-30T14:21:16.222Z,6.97
2019-03-30T14:23:44.369Z,5.03
2019-03-30T14:26:12.541Z,3.40
2019-03-30T14:28:40.599Z,3.50
2019-03-30T14:31:08.671Z,2.90
2019-03-30T14:33:36.860Z,5.45
2019-03-30T14:36:05.021Z,3.40
2019-03-30T14:38:33.410Z,3.50
2019-03-30T14:41:03.767Z,4.10
2019-03-30T14:43:31.392Z,4.85
2019-03-30T14:45:59.472Z,4.45
2019-03-30T14:48:27.573Z,4.17
2019-03-30T14:50:55.639Z,5.78
2019-03-30T14:53:24.910Z,5.30
2019-03-30T14:55:53.058Z,3.75
2019-03-30T14:58:21.234Z,3.92
2019-03-30T15:00:49.397Z,5.40
2019-03-30T15:03:17.481Z,4.72
2019-03-30T15:05:45.594Z,5.28
2019-03-30T15:08:15.421Z,3.22
2019-03-30T15:10:43.490Z,3.70
2019-03-30T15:13:11.603Z,3.90
2019-03-30T15:15:39.788Z,2.98
2019-03-30T15:18:07.856Z,3.55
2019-03-30T15:20:37.122Z,2.65
2019-03-30T15:23:05.244Z,3.47
2019-03-30T15:25:35.542Z,6.65
2019-03-30T15:28:03.683Z,6.20
2019-03-30T15:30:31.836Z,5.37
2019-03-30T15:33:03.238Z,5.50
2019-03-30T15:35:29.706Z,5.58
2019-03-30T15:37:57.877Z,6.28
2019-03-30T15:40:26.029Z,5.05
2019-03-30T15:42:56.612Z,5.15
2019-03-30T15:45:24.775Z,4.05
2019-03-30T15:47:53.184Z,5.20
2019-03-30T15:50:21.355Z,5.37
2019-03-30T15:52:49.503Z,5.62
2019-03-30T15:55:17.648Z,3.80
2019-03-30T15:57:45.882Z,4.20
2019-03-30T16:00:15.567Z,4.20
2019-03-30T16:02:44.036Z,5.50
2019-03-30T16:05:15.158Z,4.75
2019-03-30T16:07:42.067Z,3.90
2019-03-30T16:10:10.583Z,3.95
2019-03-30T16:12:39.267Z,4.37
2019-03-30T16:15:08.071Z,5.60
2019-03-30T16:17:36.205Z,4.75
2019-03-30T16:20:05.851Z,4.60
2019-03-30T16:22:34.015Z,3.52
2019-03-30T16:25:02.204Z,4.42
2019-03-30T16:27:30.350Z,3.77
2019-03-30T16:29:58.929Z,4.08
2019-03-30T16:32:27.085Z,3.72
2019-03-30T16:34:55.205Z,4.70
2019-03-30T16:37:23.324Z,6.60
2019-03-30T16:39:51.403Z,7.28
2019-03-30T16:42:19.515Z,7.60
2019-03-30T16:44:48.246Z,7.05
2019-03-30T16:47:16.446Z,5.95
2019-03-30T16:49:46.167Z,5.53
2019-03-30T16:52:14.413Z,5.55
2019-03-30T16:54:42.593Z,6.10
2019-03-30T16:57:10.722Z,5.53
2019-03-30T16:59:39.893Z,7.08
2019-03-30T17:02:07.974Z,6.78
2019-03-30T17:04:36.162Z,6.95
2019-03-30T17:07:04.402Z,8.20
2019-03-30T17:09:32.606Z,7.30
2019-03-30T17:12:00.768Z,6.58
2019-03-30T17:14:28.864Z,7.72
2019-03-30T17:16:57.372Z,7.15
2019-03-30T17:19:25.464Z,6.50
2019-03-30T17:21:53.560Z,5.08
2019-03-30T17:24:21.697Z,5.75
2019-03-30T17:26:49.824Z,4.65
2019-03-30T17:29:17.877Z,4.97
2019-03-30T17:31:45.984Z,4.08
2019-03-30T17:34:14.057Z,4.28
2019-03-30T17:36:42.181Z,3.87
2019-03-30T17:39:12.046Z,5.15
2019-03-30T17:41:40.178Z,4.47
2019-03-30T17:44:08.262Z,4.50
2019-03-30T17:46:36.434Z,4.20
2019-03-30T17:49:04.526Z,4.65
2019-03-30T17:51:32.686Z,4.53
2019-03-30T17:54:01.426Z,5.10
2019-03-30T17:56:29.637Z,4.10
2019-03-30T17:58:57.760Z,4.35
2019-03-30T18:01:25.831Z,3.37
2019-03-30T18:03:53.905Z,3.00
2019-03-30T18:06:22.051Z,2.83
2019-03-30T18:08:51.015Z,2.27
2019-03-30T18:11:19.158Z,2.30
2019-03-30T18:13:47.249Z,3.50
2019-03-30T18:16:15.420Z,3.45
2019-03-30T18:18:43.570Z,3.58
2019-03-30T18:21:11.738Z,3.22
2019-03-30T18:23:39.887Z,3.98
2019-03-30T18:26:09.013Z,3.45
2019-03-30T18:28:37.096Z,3.50
2019-03-30T18:31:05.290Z,3.27
2019-03-30T18:33:33.445Z,3.40
2019-03-30T18:36:01.624Z,3.85
2019-03-30T18:38:30.476Z,2.95
2019-03-30T18:40:58.957Z,3.20
2019-03-30T18:43:27.479Z,2.65
2019-03-30T18:45:55.562Z,3.60
2019-03-30T18:48:25.401Z,4.20
2019-03-30T18:50:53.537Z,3.27
2019-03-30T18:53:23.249Z,3.27
2019-03-30T18:55:51.357Z,3.10
2019-03-30T18:58:19.990Z,3.83
2019-03-30T19:00:48.187Z,2.70
2019-03-30T19:03:20.094Z,3.40
2019-03-30T19:05:47.555Z,2.47
2019-03-30T19:08:16.795Z,2.40
2019-03-30T19:10:44.949Z,2.60
2019-03-30T19:13:13.103Z,2.47
2019-03-30T19:15:42.850Z,2.80
2019-03-30T19:18:11.231Z,3.12
2019-03-30T19:20:40.401Z,2.55
2019-03-30T19:23:08.526Z,2.87
2019-03-30T19:25:36.718Z,2.50
2019-03-30T19:28:05.028Z,2.52
2019-03-30T19:30:33.184Z,2.42
2019-03-30T19:33:02.562Z,2.50
2019-03-30T19:35:31.098Z,2.45
2019-03-30T19:37:59.262Z,2.40
2019-03-30T19:40:27.449Z,2.12
2019-03-30T19:42:56.626Z,1.92
2019-03-30T19:45:25.882Z,2.10
2019-03-30T19:47:54.065Z,2.95
2019-03-30T19:50:22.202Z,2.27
2019-03-30T19:52:50.300Z,2.65
2019-03-30T19:55:19.497Z,2.83
2019-03-30T19:57:47.587Z,2.08
2019-03-30T20:00:16.021Z,1.98
2019-03-30T20:02:44.171Z,2.98
2019-03-30T20:05:12.707Z,2.40
2019-03-30T20:07:40.767Z,2.70
2019-03-30T20:10:09.324Z,2.90
2019-03-30T20:12:38.886Z,2.20
2019-03-30T20:15:09.043Z,2.50
2019-03-30T20:17:37.194Z,2.17
2019-03-30T20:20:05.662Z,2.25
2019-03-30T20:22:33.838Z,2.42
2019-03-30T20:25:02.002Z,2.80
2019-03-30T20:27:30.114Z,2.50
2019-03-30T20:29:58.186Z,2.15
2019-03-30T20:32:26.260Z,1.90
2019-03-30T20:34:54.329Z,2.10
2019-03-30T20:37:22.410Z,1.52
2019-03-30T20:39:50.728Z,1.27
2019-03-30T20:42:18.773Z,1.50
2019-03-30T20:44:46.854Z,1.52
2019-03-30T20:47:16.280Z,1.45
2019-03-30T20:49:44.382Z,1.27
2019-03-30T20:52:12.449Z,1.70
2019-03-30T20:54:40.524Z,1.80
2019-03-30T20:57:08.687Z,1.57
2019-03-30T20:59:40.327Z,1.55
2019-03-30T21:02:07.530Z,2.27
2019-03-30T21:04:35.936Z,1.62
2019-03-30T21:07:04.118Z,1.60
2019-03-30T21:09:32.193Z,2.25
2019-03-30T21:12:00.355Z,1.67
2019-03-30T21:14:28.411Z,1.80
2019-03-30T21:16:56.581Z,1.50
2019-03-30T21:19:24.656Z,1.57
2019-03-30T21:21:53.235Z,1.90
2019-03-30T21:24:21.360Z,1.57
2019-03-30T21:26:50.402Z,1.62
2019-03-30T21:29:18.642Z,1.47
2019-03-30T21:31:49.229Z,1.37
2019-03-30T21:34:16.703Z,1.62
2019-03-30T21:36:44.810Z,1.70
2019-03-30T21:39:12.883Z,1.75
2019-03-30T21:41:41.038Z,1.82
2019-03-30T21:44:21.367Z,1.70
2019-03-30T21:46:38.898Z,1.50
2019-03-30T21:49:06.994Z,1.75
2019-03-30T21:51:35.080Z,1.87
2019-03-30T21:54:03.181Z,2.15
2019-03-30T21:56:31.375Z,1.80
2019-03-30T21:58:59.475Z,2.02
2019-03-30T22:01:27.676Z,1.75
2019-03-30T22:03:55.895Z,1.87
2019-03-30T22:06:24.411Z,2.10
2019-03-30T22:08:52.469Z,2.40
2019-03-30T22:11:20.670Z,1.87
2019-03-30T22:13:48.912Z,2.55
2019-03-30T22:16:17.156Z,2.30
2019-03-30T22:18:45.270Z,2.17
2019-03-30T22:21:13.336Z,2.12
2019-03-30T22:23:41.417Z,1.98
2019-03-30T22:26:09.569Z,2.90
2019-03-30T22:28:37.662Z,3.10
2019-03-30T22:31:05.800Z,3.20
2019-03-30T22:33:33.885Z,2.75
2019-03-30T22:36:02.019Z,2.98
2019-03-30T22:38:30.177Z,2.67
2019-03-30T22:40:58.329Z,2.62
2019-03-30T22:43:26.596Z,2.75
2019-03-30T22:45:54.952Z,2.52
2019-03-30T22:48:23.136Z,2.50
2019-03-30T22:50:51.300Z,2.08
2019-03-30T22:53:19.414Z,2.17
2019-03-30T22:55:47.548Z,2.12
2019-03-30T22:58:15.718Z,2.15
2019-03-30T23:00:45.430Z,2.30
2019-03-30T23:03:16.947Z,2.25
2019-03-30T23:05:45.086Z,2.67
2019-03-30T23:08:13.264Z,2.67
2019-03-30T23:10:41.948Z,2.72
2019-03-30T23:13:10.119Z,2.70
2019-03-30T23:15:38.609Z,2.25
2019-03-30T23:18:06.701Z,2.10
2019-03-30T23:20:34.837Z,2.08
2019-03-30T23:23:02.905Z,2.15
2019-03-30T23:25:31.004Z,2.08
2019-03-30T23:27:59.137Z,1.87
2019-03-30T23:30:27.264Z,1.82
2019-03-30T23:32:55.440Z,2.00
2019-03-30T23:35:23.572Z,1.75
2019-03-30T23:37:51.721Z,1.90
2019-03-30T23:40:20.340Z,1.92
2019-03-30T23:42:48.480Z,1.65
2019-03-30T23:45:16.583Z,1.80
2019-03-30T23:47:44.751Z,1.82
2019-03-30T23:50:14.425Z,1.70
2019-03-30T23:52:42.519Z,1.80
2019-03-30T23:55:10.596Z,1.82
2019-03-30T23:57:38.768Z,1.82
